logo dgac
Lunes 20 de Septiembre del 2021
Buscar por aerodromo o helipuerto
Ingrese nombre de aeródromo, localidad o designador OACI:

Aeródromo: Melinka (PUB) (SCMK)

Ubicación: Melinka, XI Región, Chile (43º 53' 42'' S, 73º 44' 20'' W) Ver ubicación en el mapa

Pistas

Orientación Dimensión Pendiente Superficie Resistencia APCH THR RWY PAPI
18/36 800 x 18 1,00 ASPH 13.500 kg No No No No
Horas de operación HJ
Elevación 11 m / 35 ft
Otra Información Adm : D.G.A.C.
Uso : PUB
TEL (067) 2431515 / CEL 971084195
Ubicado a 500 m NE Melinka
email : ad.melinka@dgac.gob.cl


Otra información ver AIP-Chile Volumen I AD 3.9-11.1-M y VAC/#
CCCM/FCCV Descargar
andera de Chile
Mapa de Melinka (PUB) (SCMK)

Último METAR

METAR SCMK 201100Z AUTO 24005KT //// // OVC035/// 07/04 Q1031

Último TAF

TAF SCMK 201031Z 2012/2024 20007KT 9999 BKN035 TN08/2012Z TX12/2018Z BECMG 2020/2022 VRB02KT CAVOK

Últimas fotos cámaras

Imagen aerodromo Melinka (PUB) (SCMK) Sur tomada el 05-09-2021 06:19:36 Imagen aerodromo Melinka (PUB) (SCMK) Norte tomada el 05-04-2021 05:24:09

Último NOTAM

C3726/21 NOTAMN Q)SCTZ/QMRLX/IV/NBO/A/000/999/4354S07344W005 A)SCMK B)2108240000 C)2111232359 E)RWY 18/36 DEBIDO A POSS INCURSION DE ANIMALES,CTN